METAR Data
IDs: Format: Raw Decoded Include TAF

Data at: 1107 UTC 22 Jan 2022

KCFO 221055Z AUTO 20006KT 10SM CLR M06/M08 A3031 RMK AO2 T10641077
KCFO 221035Z AUTO 21005KT 10SM CLR M06/M07 A3031 RMK AO2 T10601073
KCFO 221015Z AUTO 20005KT 10SM CLR M06/M07 A3033 RMK AO2 T10601073
KCFO 220955Z AUTO 20005KT 10SM CLR M06/M07 A3033 RMK AO2 T10581070
KCFO 220935Z AUTO 21003KT 10SM CLR M05/M07 A3033 RMK AO2 T10541069
KCFO 220915Z AUTO 00000KT 10SM CLR M03/M05 A3033 RMK AO2 T10311051
KCFO 220855Z AUTO 22003KT 10SM SCT049 M02/M04 A3033 RMK AO2 T10241042
KCFO 220835Z AUTO 22003KT 10SM OVC049 M02/M04 A3033 RMK AO2 T10221040
KCFO 220815Z AUTO 24003KT 10SM OVC049 M01/M03 A3033 RMK AO2 T10151033
KCFO 220755Z AUTO 00000KT 10SM OVC049 M01/M03 A3033 RMK AO2 T10131033
KCFO 220735Z AUTO 00000KT 10SM OVC049 M01/M03 A3033 RMK AO2 T10111030
KCFO 220715Z AUTO 00000KT 10SM OVC045 M01/M03 A3034 RMK AO2 T10081030
KCFO 220655Z AUTO 00000KT 10SM OVC045 M01/M03 A3034 RMK AO2 T10101034 400351061
KCFO 220635Z AUTO 00000KT 10SM OVC045 M01/M03 A3034 RMK AO2 T10111035
KCFO 220615Z AUTO 35003KT 10SM OVC045 M01/M03 A3034 RMK AO2 T10111031
KCFO 220555Z AUTO 00000KT 10SM OVC045 M02/M03 A3034 RMK AO2 T10181033 10012 21023
KCFO 220535Z AUTO 30004KT 10SM SCT045 BKN120 M02/M04 A3033 RMK AO2 T10221040
KCFO 220515Z AUTO 32003KT 10SM SCT095 BKN120 M01/M03 A3033 RMK AO2 T10131030
KCFO 220455Z AUTO 32003KT 10SM OVC095 M01/M03 A3033 RMK AO2 T10101028
KCFO 220435Z AUTO 31003KT 10SM OVC085 M01/M02 A3032 RMK AO2 T10081024
KCFO 220415Z AUTO 31003KT 10SM SCT060 OVC085 M01/M02 A3032 RMK AO2 T10091024
KCFO 220347Z 29005KT 10SM OVC085 M01/M02 A3032
KCFO 220247Z 35003KT 10SM OVC045 00/M02 A3030
KCFO 220147Z 34006KT 10SM BKN030 01/M01 A3029
KCFO 220047Z 30003KT 5SM OVC030 01/00 A3026 BR
KCFO 212347Z 27005KT 3SM OVC030 01/00 A3022 -SN
KCFO 212158Z 29007KT 1SM 02/00 A3019 -SN
KCFO 212050Z 30007KT 1SM -SN OVC020 02/01 A3016
KCFO 211847Z 02014KT 5SM SCT034 OVC048 03/M02 A3016
KCFO 211747Z 05008KT 6SM BR SCT004 BKN070 M03/M03 A3015
KCFO 211647Z 00000KT 6SM SCT004 OVC070 00/M03 A3010 RMK VIS NW 3
KCFO 211513Z 24003KT 4SM BR SCT004 OVC090 M03/M04 A3004
KCFO 211455Z 24004KT 7SM SCT004 OVC090 M04/M05 A3003
KCFO 211439Z 26003KT 7SM SCT004 OVC090 M04/M05 A3003
KCFO 211410Z 00000KT 6SM BR BKN004 OVC100 M04/M06 A3001
KCFO 211347Z 30005KT 10SM OVC100 M04/M06 A2999
KCFO 211335Z AUTO 26004KT 10SM BKN100 OVC120 M05/M06 A2997 RMK AO2 T10501062
KCFO 211315Z AUTO 31004KT 7SM BKN090 BKN100 M05/M06 A2996 RMK AO2 T10511063
KCFO 211255Z AUTO 34005KT 10SM SCT090 SCT120 M05/M06 A2995 RMK AO2 T10501065
KCFO 211235Z AUTO 34004KT 10SM SCT090 SCT120 M03/M06 A2993 RMK AO2 T10321059
KCFO 211215Z AUTO 18006KT 10SM OVC090 M03/M05 A2991 RMK AO2 T10301055
KCFO 211155Z AUTO 17005KT 10SM SCT090 OVC120 M04/M06 A2991 RMK AO2 T10441060 11038 21061
KCFO 211135Z AUTO 00000KT 10SM BKN120 M05/M07 A2993 RMK AO2 T10551070
KCFO 211115Z AUTO 00000KT 10SM BKN120 M05/M07 A2993 RMK AO2 T10531070
KCFO 211055Z AUTO 00000KT 10SM SCT095 OVC110 M05/M07 A2993 RMK AO2 T10551070
KCFO 211035Z AUTO 00000KT 10SM SCT080 BKN090 OVC110 M05/M07 A2993 RMK AO2 T10481071
KCFO 211015Z AUTO 18004KT 10SM SCT080 OVC100 M05/M07 A2993 RMK AO2 T10521071
KCFO 210955Z AUTO 00000KT 10SM SCT100 SCT120 M05/M08 A2993 RMK AO2 T10541078
KCFO 210935Z AUTO 00000KT 10SM BKN120 M06/M08 A2994 RMK AO2 T10571079
KCFO 210915Z AUTO 00000KT 10SM CLR M05/M08 A2994 RMK AO2 T10501085
KCFO 210855Z AUTO 19003KT 10SM CLR M04/M08 A2993 RMK AO2 T10401084
KCFO 210835Z AUTO 22006KT 10SM CLR M04/M08 A2994 RMK AO2 T10441085
KCFO 210815Z AUTO 25004KT 10SM CLR M05/M08 A2994 RMK AO2 T10481084
KCFO 210755Z AUTO 00000KT 10SM SCT120 M06/M08 A2994 RMK AO2 T10571085
KCFO 210735Z AUTO 00000KT 10SM CLR M06/M09 A2995 RMK AO2 T10561086
KCFO 210715Z AUTO 22003KT 10SM CLR M04/M08 A2995 RMK AO2 T10451077
KCFO 210655Z AUTO 21006KT 10SM CLR M04/M07 A2996 RMK AO2 T10441071 400601075
KCFO 210635Z AUTO 00000KT 10SM CLR M04/M07 A2997 RMK AO2 T10451067
KCFO 210615Z AUTO 00000KT 10SM CLR M06/M07 A2998 RMK AO2 T10601073
KCFO 210555Z AUTO 00000KT 10SM CLR M05/M06 A2998 RMK AO2 T10501060 11016 21075
KCFO 210535Z AUTO 19004KT 10SM CLR M06/M07 A3000 RMK AO2 T10611072
KCFO 210515Z AUTO 19006KT 10SM CLR M07/M08 A3001 RMK AO2 T10731085
KCFO 210455Z AUTO 17005KT 5SM BR CLR M07/M09 A3001 RMK AO2 T10751086
KCFO 210435Z AUTO 18003KT 3/4SM BR OVC001 M07/M08 A3003 RMK AO2 T10701081
KCFO 210415Z AUTO 00000KT 1/2SM FZFG OVC001 M06/M07 A3004 RMK AO2 T10601072
KCFO 210347Z 17003KT 1/4SM OVC001 M05/M06 A3006 FZFG
KCFO 210250Z 00000KT 1/4SM OVC001 M04/M05 A3007 FZFG
KCFO 210150Z 00000KT 1/4SM OVC001 M03/M04 A3008 FZFG
KCFO 210058Z 36007KT 1/4SM BKN002 M03/M04 A3008 FZFG
KCFO 210022Z 34004KT 1/4SM BKN002 M03/M04 A3008 BR
KCFO 202350Z 36004KT 5SM BKN002 M01/M04 A3008 BR